Time,TemperatureF,DewpointF,PressureIn,WindDirection,WindDirectionDegrees,WindSpeedMPH,WindSpeedGustMPH,Humidity,HourlyPrecipIn,Conditions,Clouds,dailyrainin,SoftwareType,DateUTC
2013-06-20 00:02:00,53.0,51.0,30.39,East,86,0.0,0.0,92,0.00,,,0.00,,2013-06-20 04:02:00,
2013-06-20 00:11:00,53.0,51.0,30.39,East,86,0.0,0.0,92,0.00,,,0.00,,2013-06-20 04:11:00,
2013-06-20 00:23:00,53.0,51.0,30.40,East,86,0.0,0.0,92,0.00,,,0.00,,2013-06-20 04:23:00,
2013-06-20 00:34:00,53.0,51.0,30.39,East,86,0.0,0.0,92,0.00,,,0.00,,2013-06-20 04:34:00,
2013-06-20 00:43:00,53.0,51.0,30.40,East,86,0.0,0.0,93,0.00,,,0.00,,2013-06-20 04:43:00,
2013-06-20 00:53:00,52.0,50.0,30.40,East,86,0.0,0.0,93,0.00,,,0.00,,2013-06-20 04:53:00,
2013-06-20 01:02:00,52.0,50.0,30.40,East,86,0.0,0.0,93,0.00,,,0.00,,2013-06-20 05:02:00,
2013-06-20 01:12:00,52.0,50.0,30.41,East,86,0.0,0.0,94,0.00,,,0.00,,2013-06-20 05:12:00,
2013-06-20 01:22:00,52.0,50.0,30.41,East,86,0.0,0.0,94,0.00,,,0.00,,2013-06-20 05:22:00,
2013-06-20 01:33:00,52.0,50.0,30.41,East,86,0.0,0.0,94,0.00,,,0.00,,2013-06-20 05:33:00,
2013-06-20 01:44:00,51.0,49.0,30.41,East,86,0.0,0.0,94,0.00,,,0.00,,2013-06-20 05:44:00,
2013-06-20 01:52:00,51.0,49.0,30.41,East,86,0.0,0.0,94,0.00,,,0.00,,2013-06-20 05:52:00,
2013-06-20 02:02:00,51.0,49.0,30.41,East,86,0.0,0.0,94,0.00,,,0.00,,2013-06-20 06:02:00,
2013-06-20 02:11:00,51.0,50.0,30.41,East,86,0.0,0.0,95,0.00,,,0.00,,2013-06-20 06:11:00,
2013-06-20 02:22:00,51.0,50.0,30.41,East,86,0.0,0.0,95,0.00,,,0.00,,2013-06-20 06:22:00,
2013-06-20 02:34:00,51.0,50.0,30.41,East,86,0.0,0.0,95,0.00,,,0.00,,2013-06-20 06:34:00,
2013-06-20 02:43:00,50.0,49.0,30.41,East,86,0.0,0.0,95,0.00,,,0.00,,2013-06-20 06:43:00,
2013-06-20 02:53:00,50.0,49.0,30.42,East,86,0.0,0.0,95,0.00,,,0.00,,2013-06-20 06:53:00,
2013-06-20 03:01:00,50.0,49.0,30.42,East,86,0.0,0.0,95,0.00,,,0.00,,2013-06-20 07:01:00,
2013-06-20 03:12:00,50.0,49.0,30.42,East,86,0.0,0.0,95,0.00,,,0.00,,2013-06-20 07:12:00,
2013-06-20 03:22:00,50.0,49.0,30.42,East,86,0.0,0.0,95,0.00,,,0.00,,2013-06-20 07:22:00,
2013-06-20 03:34:00,49.0,48.0,30.42,East,86,0.0,0.0,95,0.00,,,0.00,,2013-06-20 07:34:00,
2013-06-20 03:44:00,49.0,48.0,30.43,East,86,0.0,0.0,95,0.00,,,0.00,,2013-06-20 07:44:00,
2013-06-20 03:52:00,49.0,48.0,30.43,East,86,0.0,0.0,95,0.00,,,0.00,,2013-06-20 07:52:00,
2013-06-20 04:02:00,49.0,48.0,30.43,East,86,0.0,0.0,95,0.00,,,0.00,,2013-06-20 08:02:00,
2013-06-20 04:11:00,49.0,48.0,30.43,East,86,0.0,0.0,95,0.00,,,0.00,,2013-06-20 08:11:00,
2013-06-20 04:22:00,49.0,48.0,30.43,East,86,0.0,0.0,95,0.00,,,0.00,,2013-06-20 08:22:00,
2013-06-20 04:34:00,49.0,48.0,30.44,East,86,0.0,0.0,95,0.00,,,0.00,,2013-06-20 08:34:00,
2013-06-20 04:43:00,49.0,48.0,30.44,East,86,0.0,0.0,95,0.00,,,0.00,,2013-06-20 08:43:00,
2013-06-20 04:53:00,48.0,47.0,30.44,East,86,0.0,0.0,95,0.00,,,0.00,,2013-06-20 08:53:00,
2013-06-20 05:02:00,48.0,47.0,30.45,East,86,0.0,0.0,95,0.00,,,0.00,,2013-06-20 09:02:00,
2013-06-20 05:12:00,48.0,47.0,30.45,East,86,0.0,0.0,95,0.00,,,0.00,,2013-06-20 09:12:00,
2013-06-20 05:22:00,48.0,47.0,30.45,East,86,0.0,0.0,96,0.00,,,0.00,,2013-06-20 09:22:00,
2013-06-20 05:33:00,48.0,47.0,30.46,East,86,0.0,0.0,96,0.00,,,0.00,,2013-06-20 09:33:00,
2013-06-20 05:42:00,48.0,47.0,30.46,East,86,0.0,0.0,96,0.00,,,0.00,,2013-06-20 09:42:00,
2013-06-20 05:52:00,47.0,46.0,30.47,East,86,0.0,0.0,96,0.00,,,0.00,,2013-06-20 09:52:00,
2013-06-20 06:02:00,47.0,46.0,30.47,East,86,0.0,0.0,96,0.00,,,0.00,,2013-06-20 10:02:00,
2013-06-20 06:11:00,48.0,47.0,30.47,East,86,0.0,0.0,96,0.00,,,0.00,,2013-06-20 10:11:00,
2013-06-20 06:22:00,48.0,47.0,30.47,East,86,0.0,0.0,96,0.00,,,0.00,,2013-06-20 10:22:00,
2013-06-20 06:34:00,48.0,47.0,30.48,East,86,0.0,0.0,97,0.00,,,0.00,,2013-06-20 10:34:00,
2013-06-20 06:43:00,49.0,48.0,30.48,East,86,0.0,0.0,97,0.00,,,0.00,,2013-06-20 10:43:00,
2013-06-20 06:53:00,49.0,48.0,30.48,East,86,0.0,0.0,97,0.00,,,0.00,,2013-06-20 10:53:00,
2013-06-20 07:02:00,49.0,48.0,30.48,East,86,0.0,0.0,97,0.00,,,0.00,,2013-06-20 11:02:00,
2013-06-20 07:12:00,50.0,49.0,30.49,East,86,0.0,0.0,98,0.00,,,0.00,,2013-06-20 11:12:00,
2013-06-20 07:22:00,51.0,50.0,30.49,East,86,0.0,0.0,98,0.00,,,0.00,,2013-06-20 11:22:00,
2013-06-20 07:34:00,52.0,51.0,30.50,East,86,0.0,0.0,98,0.00,,,0.00,,2013-06-20 11:34:00,
2013-06-20 07:43:00,53.0,52.0,30.50,East,86,0.0,0.0,98,0.00,,,0.00,,2013-06-20 11:43:00,
2013-06-20 07:53:00,54.0,53.0,30.50,East,86,0.0,0.0,98,0.00,,,0.00,,2013-06-20 11:53:00,
2013-06-20 08:02:00,54.0,53.0,30.51,East,86,0.0,0.0,97,0.00,,,0.00,,2013-06-20 12:02:00,
2013-06-20 08:12:00,55.0,53.0,30.51,East,86,0.0,0.0,94,0.00,,,0.00,,2013-06-20 12:12:00,
2013-06-20 08:22:00,57.0,54.0,30.51,East,86,0.0,0.0,91,0.00,,,0.00,,2013-06-20 12:22:00,
2013-06-20 08:34:00,58.0,54.0,30.51,SW,219,0.0,0.0,87,0.00,,,0.00,,2013-06-20 12:34:00,
2013-06-20 08:43:00,60.0,55.0,30.51,SW,219,0.0,0.0,85,0.00,,,0.00,,2013-06-20 12:43:00,
2013-06-20 08:53:00,61.0,55.0,30.51,SW,219,0.0,0.0,82,0.00,,,0.00,,2013-06-20 12:53:00,
2013-06-20 09:02:00,62.0,56.0,30.51,SW,219,0.0,0.0,80,0.00,,,0.00,,2013-06-20 13:02:00,
2013-06-20 09:11:00,63.0,53.0,30.51,SSW,207,0.0,1.0,71,0.00,,,0.00,,2013-06-20 13:11:00,
2013-06-20 09:22:00,65.0,54.0,30.51,SSW,204,0.0,1.0,68,0.00,,,0.00,,2013-06-20 13:22:00,
2013-06-20 09:33:00,66.0,55.0,30.51,West,264,0.0,1.0,67,0.00,,,0.00,,2013-06-20 13:33:00,
2013-06-20 09:42:00,67.0,56.0,30.51,NNW,333,0.0,0.0,67,0.00,,,0.00,,2013-06-20 13:42:00,
2013-06-20 09:53:00,68.0,54.0,30.50,West,265,1.0,3.0,60,0.00,,,0.00,,2013-06-20 13:53:00,
2013-06-20 10:02:00,69.0,56.0,30.50,West,269,0.0,1.0,63,0.00,,,0.00,,2013-06-20 14:02:00,
2013-06-20 10:11:00,70.0,54.0,30.50,SSE,159,0.0,1.0,57,0.00,,,0.00,,2013-06-20 14:11:00,
2013-06-20 10:22:00,71.0,54.0,30.50,WNW,283,1.0,2.0,56,0.00,,,0.00,,2013-06-20 14:22:00,
2013-06-20 10:32:00,71.0,54.0,30.50,WNW,283,1.0,2.0,56,0.00,,,0.00,,2013-06-20 14:32:00,
2013-06-20 10:42:00,72.0,54.0,30.50,ESE,120,0.0,2.0,53,0.00,,,0.00,,2013-06-20 14:42:00,
2013-06-20 10:53:00,72.0,53.0,30.50,WNW,287,1.0,2.0,52,0.00,,,0.00,,2013-06-20 14:53:00,
2013-06-20 11:02:00,72.0,53.0,30.50,West,278,0.0,2.0,52,0.00,,,0.00,,2013-06-20 15:02:00,
2013-06-20 11:11:00,73.0,54.0,30.50,ENE,70,1.0,3.0,51,0.00,,,0.00,,2013-06-20 15:11:00,
2013-06-20 11:22:00,74.0,55.0,30.50,WSW,255,0.0,2.0,51,0.00,,,0.00,,2013-06-20 15:22:00,
2013-06-20 11:33:00,74.0,56.0,30.50,East,95,0.0,2.0,54,0.00,,,0.00,,2013-06-20 15:33:00,
2013-06-20 11:43:00,75.0,53.0,30.50,North,349,0.0,2.0,47,0.00,,,0.00,,2013-06-20 15:43:00,
2013-06-20 11:53:00,75.0,53.0,30.50,WSW,246,1.0,2.0,46,0.00,,,0.00,,2013-06-20 15:53:00,
2013-06-20 12:02:00,75.0,54.0,30.50,WSW,249,0.0,2.0,48,0.00,,,0.00,,2013-06-20 16:02:00,
2013-06-20 12:12:00,76.0,55.0,30.50,ENE,72,0.0,2.0,48,0.00,,,0.00,,2013-06-20 16:12:00,
2013-06-20 12:22:00,76.0,55.0,30.50,West,278,0.0,1.0,49,0.00,,,0.00,,2013-06-20 16:22:00,
2013-06-20 12:33:00,75.0,56.0,30.49,West,270,1.0,2.0,52,0.00,,,0.00,,2013-06-20 16:33:00,
2013-06-20 12:43:00,75.0,55.0,30.49,WSW,246,1.0,2.0,49,0.00,,,0.00,,2013-06-20 16:43:00,
2013-06-20 12:52:00,76.0,54.0,30.49,West,274,0.0,3.0,47,0.00,,,0.00,,2013-06-20 16:52:00,
2013-06-20 13:02:00,76.0,55.0,30.49,East,101,1.0,6.0,48,0.00,,,0.00,,2013-06-20 17:02:00,
2013-06-20 13:12:00,76.0,55.0,30.49,ENE,66,0.0,6.0,49,0.00,,,0.00,,2013-06-20 17:12:00,
2013-06-20 13:22:00,76.0,58.0,30.49,SE,141,0.0,5.0,53,0.00,,,0.00,,2013-06-20 17:22:00,
2013-06-20 13:32:00,77.0,55.0,30.49,WSW,240,1.0,3.0,46,0.00,,,0.00,,2013-06-20 17:32:00,
2013-06-20 13:43:00,77.0,54.0,30.48,East,79,1.0,5.0,45,0.00,,,0.00,,2013-06-20 17:43:00,
2013-06-20 13:53:00,77.0,53.0,30.48,SSW,204,1.0,6.0,43,0.00,,,0.00,,2013-06-20 17:53:00,
2013-06-20 14:01:00,78.0,54.0,30.48,NNE,13,1.0,3.0,44,0.00,,,0.00,,2013-06-20 18:01:00,
2013-06-20 14:11:00,78.0,55.0,30.48,West,269,1.0,3.0,45,0.00,,,0.00,,2013-06-20 18:11:00,
2013-06-20 14:22:00,78.0,54.0,30.47,West,259,1.0,5.0,43,0.00,,,0.00,,2013-06-20 18:22:00,
2013-06-20 14:33:00,78.0,54.0,30.47,WNW,286,2.0,5.0,44,0.00,,,0.00,,2013-06-20 18:33:00,
2013-06-20 14:43:00,78.0,54.0,30.47,West,274,1.0,3.0,44,0.00,,,0.00,,2013-06-20 18:43:00,
2013-06-20 14:53:00,78.0,53.0,30.47,WNW,287,1.0,3.0,42,0.00,,,0.00,,2013-06-20 18:53:00,
2013-06-20 15:01:00,78.0,54.0,30.47,West,278,0.0,3.0,44,0.00,,,0.00,,2013-06-20 19:01:00,
2013-06-20 15:11:00,78.0,54.0,30.47,WNW,299,1.0,3.0,44,0.00,,,0.00,,2013-06-20 19:11:00,
2013-06-20 15:22:00,78.0,56.0,30.47,West,277,1.0,3.0,46,0.00,,,0.00,,2013-06-20 19:22:00,
2013-06-20 15:34:00,78.0,53.0,30.47,WNW,287,1.0,3.0,42,0.00,,,0.00,,2013-06-20 19:34:00,
2013-06-20 15:43:00,78.0,56.0,30.46,West,278,0.0,2.0,47,0.00,,,0.00,,2013-06-20 19:43:00,
2013-06-20 15:52:00,78.0,54.0,30.46,ESE,122,0.0,3.0,43,0.00,,,0.00,,2013-06-20 19:52:00,
2013-06-20 16:02:00,79.0,55.0,30.46,NW,316,0.0,3.0,43,0.00,,,0.00,,2013-06-20 20:02:00,
2013-06-20 16:11:00,79.0,55.0,30.46,West,260,0.0,3.0,43,0.00,,,0.00,,2013-06-20 20:11:00,
2013-06-20 16:22:00,79.0,55.0,30.46,WSW,243,1.0,3.0,44,0.00,,,0.00,,2013-06-20 20:22:00,
2013-06-20 16:33:00,79.0,55.0,30.45,SE,142,1.0,3.0,44,0.00,,,0.00,,2013-06-20 20:33:00,
2013-06-20 16:43:00,79.0,56.0,30.45,NW,321,0.0,2.0,46,0.00,,,0.00,,2013-06-20 20:43:00,
2013-06-20 17:01:00,79.0,58.0,30.45,NNW,336,0.0,2.0,48,0.00,,,0.00,,2013-06-20 21:01:00,